sensor_id;sensor_type;location;lat;lon;timestamp;pressure;altitude;pressure_sealevel;temperature;humidity
44934;BME280;30667;43.614;1.442;2022-07-23T00:01:00;100517.91;;;24.13;71.03
44934;BME280;30667;43.614;1.442;2022-07-23T00:03:27;100514.50;;;24.20;70.48
44934;BME280;30667;43.614;1.442;2022-07-23T00:05:52;100519.41;;;24.26;69.58
44934;BME280;30667;43.614;1.442;2022-07-23T00:08:18;100521.03;;;24.27;68.96
44934;BME280;30667;43.614;1.442;2022-07-23T00:10:43;100512.38;;;24.13;69.58
44934;BME280;30667;43.614;1.442;2022-07-23T00:13:09;100504.16;;;24.33;69.20
44934;BME280;30667;43.614;1.442;2022-07-23T00:15:34;100509.78;;;24.20;69.21
44934;BME280;30667;43.614;1.442;2022-07-23T00:17:59;100505.16;;;24.08;69.54
44934;BME280;30667;43.614;1.442;2022-07-23T00:20:25;100509.25;;;24.15;69.38
44934;BME280;30667;43.614;1.442;2022-07-23T00:22:52;100508.28;;;24.07;69.85
44934;BME280;30667;43.614;1.442;2022-07-23T00:25:19;100507.38;;;24.03;69.81
44934;BME280;30667;43.614;1.442;2022-07-23T00:27:44;100496.53;;;23.94;69.87
44934;BME280;30667;43.614;1.442;2022-07-23T00:30:10;100490.97;;;23.78;70.92
44934;BME280;30667;43.614;1.442;2022-07-23T00:32:47;100480.25;;;23.76;71.06
44934;BME280;30667;43.614;1.442;2022-07-23T00:35:12;100473.03;;;23.72;71.46
44934;BME280;30667;43.614;1.442;2022-07-23T00:37:38;100453.34;;;23.73;73.31
44934;BME280;30667;43.614;1.442;2022-07-23T00:40:04;100428.16;;;23.91;100.00
44934;BME280;30667;43.614;1.442;2022-07-23T00:42:31;100437.31;;;23.47;100.00
44934;BME280;30667;43.614;1.442;2022-07-23T00:44:56;100445.06;;;23.13;99.24
44934;BME280;30667;43.614;1.442;2022-07-23T00:47:22;100442.59;;;22.96;100.00
44934;BME280;30667;43.614;1.442;2022-07-23T00:49:47;100446.78;;;22.90;99.90
44934;BME280;30667;43.614;1.442;2022-07-23T00:52:13;100447.47;;;22.87;99.67
44934;BME280;30667;43.614;1.442;2022-07-23T00:54:39;100454.56;;;22.88;97.77
44934;BME280;30667;43.614;1.442;2022-07-23T00:57:04;100467.31;;;22.92;98.97
44934;BME280;30667;43.614;1.442;2022-07-23T00:59:30;100478.81;;;22.94;99.95
44934;BME280;30667;43.614;1.442;2022-07-23T01:01:55;100480.56;;;22.87;99.25
44934;BME280;30667;43.614;1.442;2022-07-23T01:04:21;100482.41;;;22.82;98.25
44934;BME280;30667;43.614;1.442;2022-07-23T01:06:46;100481.97;;;22.80;96.44
44934;BME280;30667;43.614;1.442;2022-07-23T01:09:12;100487.94;;;22.82;96.36
44934;BME280;30667;43.614;1.442;2022-07-23T01:11:38;100479.56;;;22.79;96.38
44934;BME280;30667;43.614;1.442;2022-07-23T01:14:14;100476.56;;;22.84;96.93
44934;BME280;30667;43.614;1.442;2022-07-23T01:16:41;100478.03;;;22.81;97.60
44934;BME280;30667;43.614;1.442;2022-07-23T01:19:07;100484.03;;;22.83;94.71
44934;BME280;30667;43.614;1.442;2022-07-23T01:21:38;100481.75;;;22.73;93.42
44934;BME280;30667;43.614;1.442;2022-07-23T01:24:04;100492.19;;;22.80;94.70
44934;BME280;30667;43.614;1.442;2022-07-23T01:26:30;100478.19;;;22.73;94.50
44934;BME280;30667;43.614;1.442;2022-07-23T01:28:56;100488.44;;;22.72;94.52
44934;BME280;30667;43.614;1.442;2022-07-23T01:31:22;100485.19;;;22.70;93.28
44934;BME280;30667;43.614;1.442;2022-07-23T01:33:48;100479.94;;;22.65;93.98
44934;BME280;30667;43.614;1.442;2022-07-23T01:36:14;100482.44;;;22.70;93.79
44934;BME280;30667;43.614;1.442;2022-07-23T01:38:39;100478.28;;;22.76;91.67
44934;BME280;30667;43.614;1.442;2022-07-23T01:41:05;100462.66;;;22.80;89.40
44934;BME280;30667;43.614;1.442;2022-07-23T01:43:30;100462.59;;;22.93;89.16
44934;BME280;30667;43.614;1.442;2022-07-23T01:45:55;100464.59;;;22.80;89.17
44934;BME280;30667;43.614;1.442;2022-07-23T01:48:21;100463.38;;;22.65;90.30
44934;BME280;30667;43.614;1.442;2022-07-23T01:50:47;100469.66;;;22.78;90.18
44934;BME280;30667;43.614;1.442;2022-07-23T01:53:13;100465.06;;;22.82;88.72
44934;BME280;30667;43.614;1.442;2022-07-23T01:55:39;100464.75;;;22.71;89.79
44934;BME280;30667;43.614;1.442;2022-07-23T01:58:04;100465.00;;;22.66;89.62
44934;BME280;30667;43.614;1.442;2022-07-23T02:00:30;100456.25;;;22.64;89.42
44934;BME280;30667;43.614;1.442;2022-07-23T02:02:56;100473.47;;;22.73;88.44
44934;BME280;30667;43.614;1.442;2022-07-23T02:05:23;100468.97;;;22.81;87.32
44934;BME280;30667;43.614;1.442;2022-07-23T02:07:48;100476.72;;;22.75;87.88
44934;BME280;30667;43.614;1.442;2022-07-23T02:10:14;100475.09;;;22.74;86.90
44934;BME280;30667;43.614;1.442;2022-07-23T02:12:39;100473.53;;;22.89;87.37
44934;BME280;30667;43.614;1.442;2022-07-23T02:15:05;100469.19;;;22.88;85.53
44934;BME280;30667;43.614;1.442;2022-07-23T02:17:30;100477.75;;;22.71;87.32
44934;BME280;30667;43.614;1.442;2022-07-23T02:19:56;100468.31;;;22.72;87.72
44934;BME280;30667;43.614;1.442;2022-07-23T02:22:21;100473.03;;;22.59;87.36
44934;BME280;30667;43.614;1.442;2022-07-23T02:24:47;100469.84;;;22.57;88.06
44934;BME280;30667;43.614;1.442;2022-07-23T02:27:12;100467.34;;;22.52;87.96
44934;BME280;30667;43.614;1.442;2022-07-23T02:29:37;100458.13;;;22.60;87.83
44934;BME280;30667;43.614;1.442;2022-07-23T02:32:03;100452.84;;;22.55;88.73
44934;BME280;30667;43.614;1.442;2022-07-23T02:34:28;100450.44;;;22.53;87.80
44934;BME280;30667;43.614;1.442;2022-07-23T02:36:54;100441.34;;;22.53;88.14
44934;BME280;30667;43.614;1.442;2022-07-23T02:39:19;100441.03;;;22.42;88.99
44934;BME280;30667;43.614;1.442;2022-07-23T02:41:45;100448.50;;;22.41;89.08
44934;BME280;30667;43.614;1.442;2022-07-23T02:44:10;100446.78;;;22.37;88.04
44934;BME280;30667;43.614;1.442;2022-07-23T02:46:35;100456.75;;;22.41;87.71
44934;BME280;30667;43.614;1.442;2022-07-23T02:49:01;100458.97;;;22.36;87.72
44934;BME280;30667;43.614;1.442;2022-07-23T02:51:26;100457.91;;;22.28;88.85
44934;BME280;30667;43.614;1.442;2022-07-23T02:53:54;100457.09;;;22.40;88.40
44934;BME280;30667;43.614;1.442;2022-07-23T02:56:20;100454.00;;;22.41;87.90
44934;BME280;30667;43.614;1.442;2022-07-23T05:33:37;100509.00;;;22.01;86.94
44934;BME280;30667;43.614;1.442;2022-07-23T05:36:54;100510.25;;;22.03;86.02
44934;BME280;30667;43.614;1.442;2022-07-23T05:43:03;100509.63;;;22.43;83.90
44934;BME280;30667;43.614;1.442;2022-07-23T05:46:17;100512.78;;;22.21;85.64
44934;BME280;30667;43.614;1.442;2022-07-23T05:49:21;100511.06;;;21.91;86.13
44934;BME280;30667;43.614;1.442;2022-07-23T05:52:05;100511.91;;;22.54;83.75
44934;BME280;30667;43.614;1.442;2022-07-23T05:54:34;100505.69;;;22.69;82.25
44934;BME280;30667;43.614;1.442;2022-07-23T05:57:12;100512.84;;;22.33;85.49
44934;BME280;30667;43.614;1.442;2022-07-23T05:59:37;100511.06;;;22.16;85.79
44934;BME280;30667;43.614;1.442;2022-07-23T06:02:05;100514.75;;;22.08;85.92
44934;BME280;30667;43.614;1.442;2022-07-23T06:04:30;100516.72;;;22.07;86.46
44934;BME280;30667;43.614;1.442;2022-07-23T06:06:56;100512.78;;;22.21;85.15
44934;BME280;30667;43.614;1.442;2022-07-23T06:09:21;100515.69;;;22.24;84.35
44934;BME280;30667;43.614;1.442;2022-07-23T06:11:46;100515.34;;;22.26;84.06
44934;BME280;30667;43.614;1.442;2022-07-23T06:14:12;100522.81;;;22.38;83.82
44934;BME280;30667;43.614;1.442;2022-07-23T06:16:37;100518.09;;;22.26;83.91
44934;BME280;30667;43.614;1.442;2022-07-23T06:19:02;100524.56;;;22.42;83.01
44934;BME280;30667;43.614;1.442;2022-07-23T06:21:28;100523.84;;;22.33;82.63
44934;BME280;30667;43.614;1.442;2022-07-23T06:23:53;100516.94;;;22.14;84.22
44934;BME280;30667;43.614;1.442;2022-07-23T06:26:19;100524.09;;;22.40;82.54
44934;BME280;30667;43.614;1.442;2022-07-23T06:28:44;100525.44;;;22.22;83.54
44934;BME280;30667;43.614;1.442;2022-07-23T06:31:09;100523.84;;;22.33;82.92
44934;BME280;30667;43.614;1.442;2022-07-23T06:33:35;100528.09;;;22.30;82.58
44934;BME280;30667;43.614;1.442;2022-07-23T06:36:00;100524.41;;;22.26;82.92
44934;BME280;30667;43.614;1.442;2022-07-23T06:38:25;100530.69;;;22.14;82.89
44934;BME280;30667;43.614;1.442;2022-07-23T06:40:51;100528.88;;;22.19;82.87
44934;BME280;30667;43.614;1.442;2022-07-23T06:43:16;100531.19;;;22.17;83.00
44934;BME280;30667;43.614;1.442;2022-07-23T06:45:42;100527.94;;;22.14;82.90
44934;BME280;30667;43.614;1.442;2022-07-23T06:48:07;100528.31;;;22.25;82.63
44934;BME280;30667;43.614;1.442;2022-07-23T06:50:32;100534.19;;;22.61;80.41
44934;BME280;30667;43.614;1.442;2022-07-23T06:52:58;100532.94;;;22.46;81.63
44934;BME280;30667;43.614;1.442;2022-07-23T06:55:23;100536.44;;;21.97;84.67
44934;BME280;30667;43.614;1.442;2022-07-23T06:57:49;100530.31;;;21.79;85.32
44934;BME280;30667;43.614;1.442;2022-07-23T07:00:14;100528.81;;;21.69;85.97
44934;BME280;30667;43.614;1.442;2022-07-23T07:02:40;100528.91;;;21.61;85.20
44934;BME280;30667;43.614;1.442;2022-07-23T07:05:05;100528.22;;;21.64;85.87
44934;BME280;30667;43.614;1.442;2022-07-23T07:07:31;100533.75;;;21.76;84.93
44934;BME280;30667;43.614;1.442;2022-07-23T07:09:56;100534.25;;;21.90;81.09
44934;BME280;30667;43.614;1.442;2022-07-23T07:12:21;100534.66;;;21.68;81.20
44934;BME280;30667;43.614;1.442;2022-07-23T07:14:47;100535.94;;;21.70;81.46
44934;BME280;30667;43.614;1.442;2022-07-23T07:17:12;100533.56;;;21.81;80.02
44934;BME280;30667;43.614;1.442;2022-07-23T07:19:38;100537.34;;;21.89;79.97
44934;BME280;30667;43.614;1.442;2022-07-23T07:22:03;100542.38;;;21.87;79.86
44934;BME280;30667;43.614;1.442;2022-07-23T07:24:29;100543.44;;;21.94;81.17
44934;BME280;30667;43.614;1.442;2022-07-23T07:26:54;100542.84;;;21.89;80.02
44934;BME280;30667;43.614;1.442;2022-07-23T07:29:19;100549.03;;;21.73;81.71
44934;BME280;30667;43.614;1.442;2022-07-23T07:31:45;100544.19;;;21.70;82.03
44934;BME280;30667;43.614;1.442;2022-07-23T07:34:10;100550.16;;;21.72;83.30
44934;BME280;30667;43.614;1.442;2022-07-23T07:36:35;100555.00;;;21.75;80.75
44934;BME280;30667;43.614;1.442;2022-07-23T07:39:03;100548.34;;;21.76;80.16
44934;BME280;30667;43.614;1.442;2022-07-23T07:41:30;100552.72;;;21.90;80.31
44934;BME280;30667;43.614;1.442;2022-07-23T07:43:55;100543.50;;;21.73;79.71
44934;BME280;30667;43.614;1.442;2022-07-23T07:46:21;100553.38;;;21.74;80.19
44934;BME280;30667;43.614;1.442;2022-07-23T07:48:49;100545.38;;;21.82;80.38
44934;BME280;30667;43.614;1.442;2022-07-23T07:51:15;100544.84;;;22.01;79.78
44934;BME280;30667;43.614;1.442;2022-07-23T07:53:40;100539.78;;;22.15;79.32
44934;BME280;30667;43.614;1.442;2022-07-23T07:56:06;100543.13;;;22.08;79.56
44934;BME280;30667;43.614;1.442;2022-07-23T07:58:31;100541.63;;;21.99;79.73
44934;BME280;30667;43.614;1.442;2022-07-23T08:00:56;100535.41;;;22.02;79.69
44934;BME280;30667;43.614;1.442;2022-07-23T08:03:22;100545.97;;;22.00;79.96
44934;BME280;30667;43.614;1.442;2022-07-23T08:05:47;100535.75;;;22.12;78.97
44934;BME280;30667;43.614;1.442;2022-07-23T08:08:13;100539.81;;;22.27;77.92
44934;BME280;30667;43.614;1.442;2022-07-23T08:10:40;100548.63;;;22.21;76.53
44934;BME280;30667;43.614;1.442;2022-07-23T08:13:06;100549.34;;;22.30;76.94
44934;BME280;30667;43.614;1.442;2022-07-23T08:15:32;100542.66;;;22.19;76.27
44934;BME280;30667;43.614;1.442;2022-07-23T08:17:58;100551.59;;;22.03;76.70
44934;BME280;30667;43.614;1.442;2022-07-23T08:20:25;100550.13;;;22.06;77.34
44934;BME280;30667;43.614;1.442;2022-07-23T08:22:54;100544.50;;;22.02;75.70
44934;BME280;30667;43.614;1.442;2022-07-23T08:25:33;100544.72;;;21.97;75.71
44934;BME280;30667;43.614;1.442;2022-07-23T08:28:00;100542.56;;;22.15;76.01
44934;BME280;30667;43.614;1.442;2022-07-23T08:30:25;100545.75;;;22.17;75.20
44934;BME280;30667;43.614;1.442;2022-07-23T08:32:52;100541.28;;;22.25;75.17
44934;BME280;30667;43.614;1.442;2022-07-23T08:35:26;100548.28;;;22.22;75.07
44934;BME280;30667;43.614;1.442;2022-07-23T08:37:52;100545.19;;;22.24;75.91
44934;BME280;30667;43.614;1.442;2022-07-23T08:40:19;100540.16;;;22.38;74.83
44934;BME280;30667;43.614;1.442;2022-07-23T08:42:47;100541.78;;;22.39;74.23
44934;BME280;30667;43.614;1.442;2022-07-23T08:45:16;100540.75;;;22.31;73.62
44934;BME280;30667;43.614;1.442;2022-07-23T08:47:43;100543.63;;;22.47;74.09
44934;BME280;30667;43.614;1.442;2022-07-23T08:50:10;100542.81;;;22.59;71.15
44934;BME280;30667;43.614;1.442;2022-07-23T08:52:36;100540.06;;;22.59;70.91
44934;BME280;30667;43.614;1.442;2022-07-23T08:55:01;100541.06;;;22.67;70.48
44934;BME280;30667;43.614;1.442;2022-07-23T08:57:27;100537.94;;;22.68;69.87
44934;BME280;30667;43.614;1.442;2022-07-23T08:59:52;100540.25;;;22.66;71.14
44934;BME280;30667;43.614;1.442;2022-07-23T09:02:18;100534.63;;;22.75;70.75
44934;BME280;30667;43.614;1.442;2022-07-23T09:04:43;100532.09;;;22.70;70.39
44934;BME280;30667;43.614;1.442;2022-07-23T09:07:08;100538.66;;;22.65;69.69
44934;BME280;30667;43.614;1.442;2022-07-23T09:09:34;100534.53;;;22.47;69.56
44934;BME280;30667;43.614;1.442;2022-07-23T09:12:04;100538.09;;;22.60;70.31
44934;BME280;30667;43.614;1.442;2022-07-23T09:14:44;100539.69;;;22.73;69.74
44934;BME280;30667;43.614;1.442;2022-07-23T09:17:15;100532.41;;;22.81;68.46
44934;BME280;30667;43.614;1.442;2022-07-23T09:19:42;100526.22;;;22.84;68.33
44934;BME280;30667;43.614;1.442;2022-07-23T09:22:26;100536.91;;;22.85;68.32
44934;BME280;30667;43.614;1.442;2022-07-23T09:25:17;100527.22;;;22.92;68.68
44934;BME280;30667;43.614;1.442;2022-07-23T09:27:57;100530.41;;;23.06;68.95
44934;BME280;30667;43.614;1.442;2022-07-23T09:30:25;100532.69;;;23.16;67.73
44934;BME280;30667;43.614;1.442;2022-07-23T09:35:54;100532.34;;;23.18;67.58
44934;BME280;30667;43.614;1.442;2022-07-23T09:38:24;100529.75;;;23.09;67.31
44934;BME280;30667;43.614;1.442;2022-07-23T09:41:11;100524.19;;;23.21;67.85
44934;BME280;30667;43.614;1.442;2022-07-23T09:43:38;100529.44;;;23.27;67.44
44934;BME280;30667;43.614;1.442;2022-07-23T09:46:25;100525.78;;;23.23;67.95
44934;BME280;30667;43.614;1.442;2022-07-23T09:48:54;100525.41;;;23.24;67.02
44934;BME280;30667;43.614;1.442;2022-07-23T09:51:24;100522.31;;;23.26;66.86
44934;BME280;30667;43.614;1.442;2022-07-23T09:53:52;100516.09;;;23.29;67.99
44934;BME280;30667;43.614;1.442;2022-07-23T09:56:19;100523.31;;;23.33;67.61
44934;BME280;30667;43.614;1.442;2022-07-23T09:58:45;100522.34;;;23.42;66.68
44934;BME280;30667;43.614;1.442;2022-07-23T10:01:15;100512.31;;;23.49;67.13
44934;BME280;30667;43.614;1.442;2022-07-23T10:03:42;100505.13;;;23.61;66.16
44934;BME280;30667;43.614;1.442;2022-07-23T10:06:11;100509.91;;;23.48;66.32
44934;BME280;30667;43.614;1.442;2022-07-23T10:08:40;100517.56;;;23.54;66.08
44934;BME280;30667;43.614;1.442;2022-07-23T10:11:08;100517.41;;;23.47;66.61
44934;BME280;30667;43.614;1.442;2022-07-23T10:13:34;100511.16;;;23.50;66.32
44934;BME280;30667;43.614;1.442;2022-07-23T10:16:19;100511.75;;;23.44;66.76
44934;BME280;30667;43.614;1.442;2022-07-23T10:18:46;100513.78;;;23.31;67.23
44934;BME280;30667;43.614;1.442;2022-07-23T10:21:18;100503.19;;;23.33;67.02
44934;BME280;30667;43.614;1.442;2022-07-23T10:24:01;100495.53;;;23.42;67.28
44934;BME280;30667;43.614;1.442;2022-07-23T10:26:38;100500.22;;;23.70;66.34
44934;BME280;30667;43.614;1.442;2022-07-23T10:37:36;100496.69;;;23.85;65.03
44934;BME280;30667;43.614;1.442;2022-07-23T10:40:21;100495.63;;;24.06;63.96
44934;BME280;30667;43.614;1.442;2022-07-23T10:42:50;100499.09;;;24.03;64.36
44934;BME280;30667;43.614;1.442;2022-07-23T10:45:34;100497.78;;;23.97;64.58
44934;BME280;30667;43.614;1.442;2022-07-23T10:48:26;100496.44;;;23.90;64.70
44934;BME280;30667;43.614;1.442;2022-07-23T10:51:12;100489.28;;;24.21;63.49
44934;BME280;30667;43.614;1.442;2022-07-23T10:59:14;100491.44;;;24.47;62.55
44934;BME280;30667;43.614;1.442;2022-07-23T11:01:40;100490.03;;;24.38;62.08
44934;BME280;30667;43.614;1.442;2022-07-23T11:04:05;100487.75;;;24.40;63.00
44934;BME280;30667;43.614;1.442;2022-07-23T11:15:07;100495.22;;;24.39;61.29
44934;BME280;30667;43.614;1.442;2022-07-23T11:20:17;100485.69;;;24.37;62.15
44934;BME280;30667;43.614;1.442;2022-07-23T11:25:09;100482.50;;;24.90;60.90
44934;BME280;30667;43.614;1.442;2022-07-23T11:27:43;100482.44;;;24.86;59.57
44934;BME280;30667;43.614;1.442;2022-07-23T11:32:47;100473.91;;;24.75;60.73
44934;BME280;30667;43.614;1.442;2022-07-23T11:35:24;100467.22;;;24.76;59.85
44934;BME280;30667;43.614;1.442;2022-07-23T11:37:51;100470.28;;;24.91;59.22
44934;BME280;30667;43.614;1.442;2022-07-23T11:40:24;100469.94;;;24.92;58.31
44934;BME280;30667;43.614;1.442;2022-07-23T11:43:10;100468.06;;;25.00;58.04
44934;BME280;30667;43.614;1.442;2022-07-23T11:45:38;100470.28;;;25.10;58.16
44934;BME280;30667;43.614;1.442;2022-07-23T11:48:16;100464.94;;;25.01;58.29
44934;BME280;30667;43.614;1.442;2022-07-23T11:53:45;100454.97;;;24.77;57.73
44934;BME280;30667;43.614;1.442;2022-07-23T11:56:13;100455.84;;;24.81;57.76
44934;BME280;30667;43.614;1.442;2022-07-23T11:58:39;100453.44;;;24.99;58.09
44934;BME280;30667;43.614;1.442;2022-07-23T12:01:14;100447.47;;;24.97;57.37
44934;BME280;30667;43.614;1.442;2022-07-23T12:07:01;100442.44;;;25.03;57.34
44934;BME280;30667;43.614;1.442;2022-07-23T12:09:56;100435.69;;;25.00;62.34
44934;BME280;30667;43.614;1.442;2022-07-23T12:12:24;100435.06;;;25.11;56.55
44934;BME280;30667;43.614;1.442;2022-07-23T12:14:55;100429.09;;;25.09;59.10
44934;BME280;30667;43.614;1.442;2022-07-23T12:17:33;100424.66;;;25.04;60.83
44934;BME280;30667;43.614;1.442;2022-07-23T12:20:03;100433.97;;;25.15;56.59
44934;BME280;30667;43.614;1.442;2022-07-23T12:22:44;100424.69;;;25.27;55.80
44934;BME280;30667;43.614;1.442;2022-07-23T12:25:22;100427.13;;;25.29;54.57
44934;BME280;30667;43.614;1.442;2022-07-23T12:30:24;100429.22;;;25.16;54.23
44934;BME280;30667;43.614;1.442;2022-07-23T12:33:02;100415.69;;;25.11;56.48
44934;BME280;30667;43.614;1.442;2022-07-23T12:35:34;100413.34;;;25.13;56.29
44934;BME280;30667;43.614;1.442;2022-07-23T12:38:05;100410.31;;;25.18;56.22
44934;BME280;30667;43.614;1.442;2022-07-23T12:45:55;100400.84;;;25.42;53.67
44934;BME280;30667;43.614;1.442;2022-07-23T12:48:33;100392.03;;;25.36;53.72
44934;BME280;30667;43.614;1.442;2022-07-23T12:51:06;100391.31;;;25.40;53.46
44934;BME280;30667;43.614;1.442;2022-07-23T12:53:37;100391.56;;;25.31;53.10
44934;BME280;30667;43.614;1.442;2022-07-23T12:56:44;100392.34;;;25.31;53.47
44934;BME280;30667;43.614;1.442;2022-07-23T12:59:12;100395.34;;;25.23;55.61
44934;BME280;30667;43.614;1.442;2022-07-23T13:01:59;100388.69;;;25.27;56.08
44934;BME280;30667;43.614;1.442;2022-07-23T13:04:26;100381.56;;;25.26;55.82
44934;BME280;30667;43.614;1.442;2022-07-23T13:06:54;100390.75;;;25.53;52.67
44934;BME280;30667;43.614;1.442;2022-07-23T13:09:28;100388.34;;;25.52;52.59
44934;BME280;30667;43.614;1.442;2022-07-23T13:11:55;100375.38;;;25.33;54.60
44934;BME280;30667;43.614;1.442;2022-07-23T13:14:21;100374.69;;;25.40;52.85
44934;BME280;30667;43.614;1.442;2022-07-23T13:16:49;100368.53;;;25.50;51.63
44934;BME280;30667;43.614;1.442;2022-07-23T13:19:15;100365.09;;;25.56;51.92
44934;BME280;30667;43.614;1.442;2022-07-23T13:21:41;100370.63;;;25.56;53.33
44934;BME280;30667;43.614;1.442;2022-07-23T13:24:08;100361.88;;;25.54;51.18
44934;BME280;30667;43.614;1.442;2022-07-23T13:26:33;100356.06;;;25.63;50.84
44934;BME280;30667;43.614;1.442;2022-07-23T13:28:59;100363.50;;;25.82;49.93
44934;BME280;30667;43.614;1.442;2022-07-23T13:31:24;100362.53;;;25.71;51.84
44934;BME280;30667;43.614;1.442;2022-07-23T13:33:49;100353.94;;;25.53;51.86
44934;BME280;30667;43.614;1.442;2022-07-23T13:36:15;100345.47;;;25.42;53.09
44934;BME280;30667;43.614;1.442;2022-07-23T13:38:41;100342.41;;;25.51;53.20
44934;BME280;30667;43.614;1.442;2022-07-23T13:41:06;100342.28;;;25.67;50.45
44934;BME280;30667;43.614;1.442;2022-07-23T13:43:32;100337.97;;;25.69;50.56
44934;BME280;30667;43.614;1.442;2022-07-23T13:45:58;100343.84;;;25.64;51.71
44934;BME280;30667;43.614;1.442;2022-07-23T13:48:23;100349.31;;;25.87;49.58
44934;BME280;30667;43.614;1.442;2022-07-23T13:50:49;100343.94;;;25.98;48.94
44934;BME280;30667;43.614;1.442;2022-07-23T13:53:20;100338.25;;;25.91;50.15
44934;BME280;30667;43.614;1.442;2022-07-23T13:55:47;100340.72;;;25.96;49.85
44934;BME280;30667;43.614;1.442;2022-07-23T13:58:13;100332.13;;;25.78;50.70
44934;BME280;30667;43.614;1.442;2022-07-23T14:00:41;100326.09;;;26.26;46.65
44934;BME280;30667;43.614;1.442;2022-07-23T14:03:08;100327.59;;;26.20;48.60
44934;BME280;30667;43.614;1.442;2022-07-23T14:05:34;100320.91;;;26.24;46.41
44934;BME280;30667;43.614;1.442;2022-07-23T14:08:00;100322.94;;;26.27;47.80
44934;BME280;30667;43.614;1.442;2022-07-23T14:10:25;100317.16;;;25.83;52.65
44934;BME280;30667;43.614;1.442;2022-07-23T14:12:52;100302.34;;;25.71;52.43
44934;BME280;30667;43.614;1.442;2022-07-23T14:15:28;100300.56;;;25.86;50.95
44934;BME280;30667;43.614;1.442;2022-07-23T14:17:55;100305.06;;;25.95;51.01
44934;BME280;30667;43.614;1.442;2022-07-23T14:20:20;100296.06;;;25.74;52.87
44934;BME280;30667;43.614;1.442;2022-07-23T14:22:46;100291.00;;;25.80;51.76
44934;BME280;30667;43.614;1.442;2022-07-23T14:25:12;100297.09;;;26.20;50.58
44934;BME280;30667;43.614;1.442;2022-07-23T14:27:37;100299.19;;;26.30;47.01
44934;BME280;30667;43.614;1.442;2022-07-23T14:30:04;100286.81;;;26.58;46.99
44934;BME280;30667;43.614;1.442;2022-07-23T14:32:31;100286.66;;;26.77;45.86
44934;BME280;30667;43.614;1.442;2022-07-23T14:34:56;100284.31;;;26.12;53.20
44934;BME280;30667;43.614;1.442;2022-07-23T14:37:21;100274.03;;;26.46;46.17
44934;BME280;30667;43.614;1.442;2022-07-23T14:39:47;100271.53;;;26.37;46.79
44934;BME280;30667;43.614;1.442;2022-07-23T14:42:13;100275.31;;;26.56;45.90
44934;BME280;30667;43.614;1.442;2022-07-23T14:44:39;100274.63;;;26.66;44.80
44934;BME280;30667;43.614;1.442;2022-07-23T14:47:05;100269.13;;;26.36;48.58
44934;BME280;30667;43.614;1.442;2022-07-23T14:49:32;100273.75;;;26.24;47.84
44934;BME280;30667;43.614;1.442;2022-07-23T14:51:58;100261.34;;;26.49;44.92
44934;BME280;30667;43.614;1.442;2022-07-23T14:54:24;100257.19;;;26.66;44.50
44934;BME280;30667;43.614;1.442;2022-07-23T14:56:51;100249.03;;;26.83;45.06
44934;BME280;30667;43.614;1.442;2022-07-23T14:59:17;100249.34;;;26.71;45.06
44934;BME280;30667;43.614;1.442;2022-07-23T15:01:42;100255.81;;;26.86;44.11
44934;BME280;30667;43.614;1.442;2022-07-23T15:04:08;100251.94;;;26.57;45.29
44934;BME280;30667;43.614;1.442;2022-07-23T15:06:33;100242.78;;;26.53;47.66
44934;BME280;30667;43.614;1.442;2022-07-23T15:08:59;100249.53;;;26.18;49.65
44934;BME280;30667;43.614;1.442;2022-07-23T15:11:26;100252.31;;;26.55;46.39
44934;BME280;30667;43.614;1.442;2022-07-23T15:13:51;100252.38;;;27.00;44.04
44934;BME280;30667;43.614;1.442;2022-07-23T15:16:17;100239.00;;;27.20;43.73
44934;BME280;30667;43.614;1.442;2022-07-23T15:18:43;100237.22;;;27.46;42.12
44934;BME280;30667;43.614;1.442;2022-07-23T15:21:08;100235.38;;;27.12;43.90
44934;BME280;30667;43.614;1.442;2022-07-23T15:23:33;100234.56;;;27.64;41.35
44934;BME280;30667;43.614;1.442;2022-07-23T15:26:00;100234.19;;;27.72;41.12
44934;BME280;30667;43.614;1.442;2022-07-23T15:28:26;100240.47;;;27.59;43.60
44934;BME280;30667;43.614;1.442;2022-07-23T15:30:51;100233.19;;;27.36;43.50
44934;BME280;30667;43.614;1.442;2022-07-23T15:33:18;100230.34;;;27.25;42.72
44934;BME280;30667;43.614;1.442;2022-07-23T15:35:43;100238.25;;;27.27;44.80
44934;BME280;30667;43.614;1.442;2022-07-23T15:38:09;100235.63;;;26.93;45.76
44934;BME280;30667;43.614;1.442;2022-07-23T15:40:34;100226.66;;;26.66;47.28
44934;BME280;30667;43.614;1.442;2022-07-23T15:43:00;100228.13;;;26.56;49.82
44934;BME280;30667;43.614;1.442;2022-07-23T15:45:26;100232.75;;;26.82;44.51
44934;BME280;30667;43.614;1.442;2022-07-23T15:47:51;100228.72;;;27.21;45.53
44934;BME280;30667;43.614;1.442;2022-07-23T15:50:17;100226.38;;;27.30;43.99
44934;BME280;30667;43.614;1.442;2022-07-23T15:52:42;100230.16;;;27.56;40.47
44934;BME280;30667;43.614;1.442;2022-07-23T15:55:08;100224.63;;;27.04;46.71
44934;BME280;30667;43.614;1.442;2022-07-23T15:57:34;100219.16;;;27.14;45.23
44934;BME280;30667;43.614;1.442;2022-07-23T15:59:59;100226.31;;;27.19;45.71
44934;BME280;30667;43.614;1.442;2022-07-23T16:02:25;100226.50;;;26.89;49.41
44934;BME280;30667;43.614;1.442;2022-07-23T16:04:50;100226.81;;;26.83;48.17
44934;BME280;30667;43.614;1.442;2022-07-23T16:07:17;100220.97;;;26.96;46.80
44934;BME280;30667;43.614;1.442;2022-07-23T16:09:43;100218.44;;;27.28;43.97
44934;BME280;30667;43.614;1.442;2022-07-23T16:12:09;100211.59;;;27.15;46.60
44934;BME280;30667;43.614;1.442;2022-07-23T16:14:35;100213.47;;;27.00;49.43
44934;BME280;30667;43.614;1.442;2022-07-23T16:17:00;100210.91;;;27.29;44.32
44934;BME280;30667;43.614;1.442;2022-07-23T16:19:26;100216.28;;;27.66;42.15
44934;BME280;30667;43.614;1.442;2022-07-23T16:21:52;100217.28;;;28.06;41.08